createdAt,value
2022-10-18T00:00:55.291Z,101014.38
2022-10-18T00:03:37.078Z,101018.85
2022-10-18T00:06:05.242Z,101017.85
2022-10-18T00:08:31.974Z,101009.45
2022-10-18T00:10:58.602Z,101004.04
2022-10-18T00:13:25.629Z,101006.20
2022-10-18T00:15:59.710Z,101012.59
2022-10-18T00:18:27.670Z,101016.13
2022-10-18T00:21:06.501Z,101023.02
2022-10-18T00:23:34.249Z,101027.80
2022-10-18T00:26:02.671Z,101033.81
2022-10-18T00:28:29.468Z,101030.25
2022-10-18T00:30:56.678Z,101028.00
2022-10-18T00:33:23.465Z,101029.09
2022-10-18T00:35:50.062Z,101033.16
2022-10-18T00:38:16.892Z,101039.00
2022-10-18T00:40:43.642Z,101042.86
2022-10-18T00:43:15.367Z,101041.05
2022-10-18T00:45:42.416Z,101039.95
2022-10-18T00:48:11.008Z,101038.15
2022-10-18T00:50:37.996Z,101032.89
2022-10-18T00:53:12.477Z,101034.86
2022-10-18T00:55:39.222Z,101033.83
2022-10-18T00:58:07.465Z,101031.54
2022-10-18T01:00:38.176Z,101032.92
2022-10-18T01:03:05.859Z,101035.38
2022-10-18T01:05:36.231Z,101035.33
2022-10-18T01:08:28.994Z,101035.33
2022-10-18T01:11:22.861Z,101042.61
2022-10-18T01:14:07.692Z,101050.81
2022-10-18T01:16:43.090Z,101061.10
2022-10-18T01:19:40.596Z,101051.38
2022-10-18T01:22:13.322Z,101054.92
2022-10-18T01:25:06.447Z,101051.92
2022-10-18T01:28:14.863Z,101045.87
2022-10-18T01:30:47.495Z,101035.61
2022-10-18T01:33:37.040Z,101043.77
2022-10-18T01:36:25.515Z,101040.20
2022-10-18T01:38:56.953Z,101035.79
2022-10-18T01:41:25.032Z,101032.23
2022-10-18T01:43:56.888Z,101034.65
2022-10-18T01:46:25.334Z,101025.05
2022-10-18T01:48:54.052Z,101027.89
2022-10-18T01:51:26.620Z,101026.48
2022-10-18T01:53:53.713Z,101027.00
2022-10-18T01:56:31.852Z,101025.92
2022-10-18T01:59:23.572Z,101022.70
2022-10-18T02:02:02.211Z,101018.23
2022-10-18T02:04:49.154Z,101023.73
2022-10-18T02:07:42.436Z,101029.02
2022-10-18T02:10:21.127Z,101032.23
2022-10-18T02:12:51.302Z,101036.48
2022-10-18T02:15:23.908Z,101041.98
2022-10-18T02:17:53.800Z,101042.13
2022-10-18T02:20:23.041Z,101028.30
2022-10-18T02:22:53.686Z,101018.91
2022-10-18T02:25:26.690Z,101023.38
2022-10-18T02:27:53.845Z,101029.26
2022-10-18T02:30:31.962Z,101035.48
2022-10-18T02:33:09.640Z,101035.48
2022-10-18T02:35:44.085Z,101035.82
2022-10-18T02:38:13.781Z,101045.20
2022-10-18T02:40:40.403Z,101048.26
2022-10-18T02:43:07.201Z,101029.73
2022-10-18T02:45:34.010Z,101031.87
2022-10-18T02:48:00.815Z,101032.42
2022-10-18T02:50:27.414Z,101034.55
2022-10-18T02:52:54.050Z,101046.78
2022-10-18T02:55:20.775Z,101052.95
2022-10-18T02:57:47.369Z,101056.14
2022-10-18T03:00:14.751Z,101051.54
2022-10-18T03:02:41.428Z,101046.77
2022-10-18T03:05:08.059Z,101050.66
2022-10-18T03:07:34.971Z,101050.30
2022-10-18T03:10:01.789Z,101043.73
2022-10-18T03:12:28.407Z,101049.75
2022-10-18T03:14:55.055Z,101056.13
2022-10-18T03:17:21.714Z,101057.02
2022-10-18T03:19:48.314Z,101053.70
2022-10-18T03:22:14.975Z,101061.19
2022-10-18T03:24:41.694Z,101055.20
2022-10-18T03:27:08.293Z,101061.39
2022-10-18T03:29:34.907Z,101061.02
2022-10-18T03:32:01.563Z,101064.23
2022-10-18T03:34:28.208Z,101070.80
2022-10-18T03:36:54.846Z,101070.83
2022-10-18T03:39:21.624Z,101075.48
2022-10-18T03:41:48.276Z,101084.21
2022-10-18T03:44:14.889Z,101076.88
2022-10-18T03:46:41.590Z,101072.88
2022-10-18T03:49:08.532Z,101069.55
2022-10-18T03:51:35.157Z,101067.31
2022-10-18T03:54:01.886Z,101067.67
2022-10-18T03:56:28.602Z,101064.75
2022-10-18T03:58:56.482Z,101065.33
2022-10-18T04:01:23.168Z,101067.80
2022-10-18T04:03:50.163Z,101069.54
2022-10-18T04:06:16.862Z,101073.39
2022-10-18T04:08:43.434Z,101085.96
2022-10-18T04:11:10.652Z,101095.90
2022-10-18T04:13:37.962Z,101092.56
2022-10-18T04:16:04.644Z,101094.20
2022-10-18T04:18:31.331Z,101094.41
2022-10-18T04:20:58.341Z,101086.46
2022-10-18T04:23:25.039Z,101087.36
2022-10-18T04:25:51.749Z,101089.82
2022-10-18T04:28:18.572Z,101083.10
2022-10-18T04:30:49.912Z,101089.14
2022-10-18T04:33:17.288Z,101077.35
2022-10-18T04:35:44.031Z,101080.55
2022-10-18T04:38:10.921Z,101083.76
2022-10-18T04:40:37.509Z,101093.14
2022-10-18T04:43:04.208Z,101092.60
2022-10-18T04:45:30.870Z,101091.52
2022-10-18T04:47:57.476Z,101090.84
2022-10-18T04:50:24.268Z,101092.80
2022-10-18T04:52:52.824Z,101079.59
2022-10-18T04:55:19.805Z,101075.08
2022-10-18T04:57:46.551Z,101070.88
2022-10-18T05:00:13.761Z,101079.23
2022-10-18T05:02:40.358Z,101076.45
2022-10-18T05:05:10.413Z,101076.46
2022-10-18T05:07:39.964Z,101073.99
2022-10-18T05:10:07.507Z,101084.08
2022-10-18T05:12:34.544Z,101092.21
2022-10-18T05:15:01.450Z,101091.16
2022-10-18T05:17:28.176Z,101093.69
2022-10-18T05:19:55.185Z,101095.83
2022-10-18T05:22:21.819Z,101095.66
2022-10-18T05:24:48.490Z,101090.23
2022-10-18T05:27:15.178Z,101088.64
2022-10-18T05:29:41.772Z,101088.81
2022-10-18T05:32:08.506Z,101086.53
2022-10-18T05:34:35.149Z,101089.33
2022-10-18T05:37:01.894Z,101096.94
2022-10-18T05:39:28.709Z,101095.00
2022-10-18T05:41:55.430Z,101093.46
2022-10-18T05:44:22.035Z,101091.90
2022-10-18T05:46:48.699Z,101088.23
2022-10-18T05:49:15.450Z,101092.85
2022-10-18T05:51:42.066Z,101092.34
2022-10-18T05:54:11.335Z,101097.11
2022-10-18T05:59:11.394Z,101093.95
2022-10-18T06:01:39.584Z,101091.14
2022-10-18T06:04:07.214Z,101092.20
2022-10-18T06:06:33.930Z,101101.72
2022-10-18T06:09:03.138Z,101105.59
2022-10-18T06:11:30.767Z,101111.42
2022-10-18T06:13:57.598Z,101115.83
2022-10-18T06:16:29.841Z,101114.58
2022-10-18T06:18:59.445Z,101120.05
2022-10-18T06:21:27.401Z,101122.14
2022-10-18T06:23:58.483Z,101120.00
2022-10-18T06:26:26.958Z,101121.56
2022-10-18T06:28:53.674Z,101125.46
2022-10-18T06:31:20.752Z,101123.52
2022-10-18T06:33:47.869Z,101124.92
2022-10-18T06:36:21.464Z,101126.68
2022-10-18T06:38:48.995Z,101132.35
2022-10-18T06:41:17.314Z,101136.40
2022-10-18T06:43:48.232Z,101133.75
2022-10-18T06:46:15.302Z,101132.16
2022-10-18T06:48:42.020Z,101137.69
2022-10-18T06:51:09.684Z,101127.80
2022-10-18T06:53:44.228Z,101128.16
2022-10-18T06:56:20.006Z,101120.55
2022-10-18T06:58:46.871Z,101122.66
2022-10-18T07:01:15.631Z,101121.92
2022-10-18T07:03:43.954Z,101120.46
2022-10-18T07:06:12.261Z,101122.92
2022-10-18T07:08:39.727Z,101128.55
2022-10-18T07:11:08.021Z,101125.17
2022-10-18T07:13:34.739Z,101132.79
2022-10-18T07:16:11.582Z,101129.95
2022-10-18T07:18:43.857Z,101130.10
2022-10-18T07:21:16.441Z,101127.25
2022-10-18T07:23:46.023Z,101126.89
2022-10-18T07:26:16.998Z,101123.33
2022-10-18T07:28:46.511Z,101127.38
2022-10-18T07:31:13.437Z,101128.95
2022-10-18T07:33:42.314Z,101131.96
2022-10-18T07:36:10.758Z,101132.10
2022-10-18T07:38:37.608Z,101138.83
2022-10-18T07:41:06.405Z,101140.92
2022-10-18T07:43:34.179Z,101138.62
2022-10-18T07:46:03.297Z,101135.23
2022-10-18T07:48:30.415Z,101131.68
2022-10-18T07:51:01.335Z,101125.45
2022-10-18T07:53:28.995Z,101125.60
2022-10-18T07:56:01.480Z,101137.41
2022-10-18T07:58:33.841Z,101139.52
2022-10-18T08:01:05.190Z,101133.83
2022-10-18T08:03:32.464Z,101133.80
2022-10-18T08:05:59.358Z,101130.63
2022-10-18T08:08:28.113Z,101132.52
2022-10-18T08:10:54.939Z,101126.14
2022-10-18T08:13:21.797Z,101126.86
2022-10-18T08:15:48.517Z,101131.65
2022-10-18T08:18:15.190Z,101130.06
2022-10-18T08:20:43.910Z,101125.83
2022-10-18T08:23:10.572Z,101123.30
2022-10-18T08:25:37.584Z,101125.58
2022-10-18T08:28:04.462Z,101129.64
2022-10-18T08:30:31.179Z,101128.71
2022-10-18T08:32:57.843Z,101128.18
2022-10-18T08:35:24.889Z,101130.48
2022-10-18T08:37:51.552Z,101130.13
2022-10-18T08:40:18.380Z,101126.21
2022-10-18T08:43:23.419Z,101123.55
2022-10-18T08:45:51.675Z,101119.28
2022-10-18T08:48:49.585Z,101123.32
2022-10-18T08:51:27.837Z,101120.29
2022-10-18T08:54:05.831Z,101124.16
2022-10-18T08:56:34.005Z,101122.38
2022-10-18T08:59:03.529Z,101125.88
2022-10-18T09:04:32.210Z,101121.83
2022-10-18T09:06:59.124Z,101114.19
2022-10-18T09:10:02.130Z,101105.52
2022-10-18T09:12:43.967Z,101104.11
2022-10-18T09:15:28.820Z,101106.92
2022-10-18T09:18:24.778Z,101109.59
2022-10-18T09:20:57.962Z,101118.76
2022-10-18T09:23:44.907Z,101117.87
2022-10-18T09:26:20.170Z,101114.33
2022-10-18T09:29:05.430Z,101112.38
2022-10-18T09:31:50.630Z,101107.09
2022-10-18T09:34:25.846Z,101109.91
2022-10-18T09:36:53.596Z,101105.31
2022-10-18T09:39:25.217Z,101107.41
2022-10-18T09:41:57.187Z,101110.74
2022-10-18T09:44:35.186Z,101112.15
2022-10-18T09:47:25.178Z,101112.67
2022-10-18T09:49:56.847Z,101106.65
2022-10-18T09:52:31.689Z,101102.74
2022-10-18T09:55:03.673Z,101101.34
2022-10-18T09:57:48.339Z,101098.16
2022-10-18T10:00:20.525Z,101096.09
2022-10-18T10:02:47.186Z,101094.38
2022-10-18T10:05:14.914Z,101096.36
2022-10-18T10:07:44.832Z,101096.01
2022-10-18T10:10:24.507Z,101094.23
2022-10-18T10:13:15.457Z,101093.37
2022-10-18T10:16:01.616Z,101092.14
2022-10-18T10:18:35.872Z,101095.20
2022-10-18T10:21:06.332Z,101101.41
2022-10-18T10:23:52.437Z,101096.30
2022-10-18T10:26:32.937Z,101092.39
2022-10-18T10:29:00.107Z,101090.79
2022-10-18T10:31:29.027Z,101089.73
2022-10-18T10:34:03.384Z,101092.37
2022-10-18T10:36:31.867Z,101090.27
2022-10-18T10:39:06.519Z,101087.44
2022-10-18T10:41:34.242Z,101081.39
2022-10-18T10:44:03.429Z,101078.91
2022-10-18T10:46:35.928Z,101077.66
2022-10-18T10:49:34.977Z,101077.48
2022-10-18T10:52:08.548Z,101077.50
2022-10-18T10:54:38.757Z,101071.87
2022-10-18T10:57:19.787Z,101071.92
2022-10-18T10:59:53.046Z,101073.50
2022-10-18T11:02:30.623Z,101075.45
2022-10-18T11:05:26.336Z,101075.98
2022-10-18T11:07:59.259Z,101069.96
2022-10-18T11:10:30.545Z,101070.84
2022-10-18T11:13:01.762Z,101067.50
2022-10-18T11:15:49.363Z,101065.89
2022-10-18T11:18:31.007Z,101067.12
2022-10-18T11:21:00.730Z,101064.80
2022-10-18T11:23:31.960Z,101061.62
2022-10-18T11:26:10.736Z,101059.85
2022-10-18T11:28:43.453Z,101056.86
2022-10-18T11:31:21.527Z,101057.73
2022-10-18T11:34:22.243Z,101048.88
2022-10-18T11:37:28.208Z,101048.35
2022-10-18T11:40:02.262Z,101051.02
2022-10-18T11:42:47.018Z,101051.23
2022-10-18T11:45:22.929Z,101049.30
2022-10-18T11:47:55.111Z,101048.77
2022-10-18T11:50:53.584Z,101046.25
2022-10-18T11:53:42.607Z,101039.36
2022-10-18T11:56:19.399Z,101039.40
2022-10-18T11:59:01.483Z,101037.31
2022-10-18T12:01:51.237Z,101029.55
2022-10-18T12:04:27.327Z,101022.66
2022-10-18T12:06:55.758Z,101021.58
2022-10-18T12:09:30.378Z,101019.26
2022-10-18T12:12:02.559Z,101017.33
2022-10-18T12:14:38.059Z,101015.77
2022-10-18T12:17:40.660Z,101021.08
2022-10-18T12:20:14.215Z,101027.80
2022-10-18T12:22:58.999Z,101024.42
2022-10-18T12:25:28.483Z,101021.94
2022-10-18T12:28:22.289Z,101022.66
2022-10-18T12:31:02.393Z,101016.34
2022-10-18T12:33:37.771Z,101014.75
2022-10-18T12:36:17.031Z,101008.91
2022-10-18T12:38:47.404Z,101009.80
2022-10-18T12:41:26.996Z,100995.48
2022-10-18T12:43:59.290Z,100990.38
2022-10-18T12:46:43.252Z,100986.52
2022-10-18T12:49:12.847Z,100989.17
2022-10-18T12:51:51.744Z,100987.05
2022-10-18T12:54:25.075Z,100984.38
2022-10-18T12:56:52.065Z,100991.43
2022-10-18T12:59:18.994Z,100991.43
2022-10-18T13:01:54.605Z,100993.23
2022-10-18T13:04:27.504Z,100991.27
2022-10-18T13:06:57.257Z,100986.48
2022-10-18T13:09:26.425Z,100982.59
2022-10-18T13:12:14.412Z,100979.05
2022-10-18T13:15:24.656Z,100973.23
2022-10-18T13:18:31.350Z,100978.08
2022-10-18T13:21:01.130Z,100980.38
2022-10-18T13:23:36.969Z,100978.06
2022-10-18T13:26:23.153Z,100981.95
2022-10-18T13:28:49.815Z,100977.58
2022-10-18T13:31:19.822Z,100977.81
2022-10-18T13:33:46.659Z,100977.01
2022-10-18T13:36:21.648Z,100974.02
2022-10-18T13:38:52.841Z,100970.32
2022-10-18T13:41:21.594Z,100974.71
2022-10-18T13:44:27.513Z,100972.76
2022-10-18T13:46:54.222Z,100970.45
2022-10-18T13:49:30.149Z,100971.73
2022-10-18T13:52:06.522Z,100971.95
2022-10-18T13:55:12.123Z,100969.13
2022-10-18T13:57:53.860Z,100967.19
2022-10-18T14:00:54.392Z,100972.48
2022-10-18T14:06:36.524Z,100976.21
2022-10-18T14:09:25.712Z,100971.13
2022-10-18T14:12:12.338Z,100978.73
2022-10-18T14:15:11.467Z,100979.11
2022-10-18T14:17:50.500Z,100976.63
2022-10-18T14:20:28.757Z,100973.80
2022-10-18T14:23:18.403Z,100971.35
2022-10-18T14:25:46.073Z,100971.20
2022-10-18T14:28:12.807Z,100970.55
2022-10-18T14:30:57.489Z,100973.45
2022-10-18T14:33:45.727Z,100974.09
2022-10-18T14:36:24.244Z,100974.50
2022-10-18T14:38:52.744Z,100969.96
2022-10-18T14:41:19.383Z,100963.29
2022-10-18T14:43:47.661Z,100963.84
2022-10-18T14:46:25.886Z,100965.40
2022-10-18T14:48:58.461Z,100967.69
2022-10-18T14:51:28.259Z,100962.23
2022-10-18T14:53:55.322Z,100958.55
2022-10-18T14:56:22.763Z,100952.91
2022-10-18T14:58:50.186Z,100952.04
2022-10-18T15:01:19.740Z,100953.98
2022-10-18T15:03:47.492Z,100952.36
2022-10-18T15:06:19.229Z,100957.10
2022-10-18T15:08:50.884Z,100952.48
2022-10-18T15:11:17.959Z,100951.95
2022-10-18T15:13:51.483Z,100956.91
2022-10-18T15:16:19.611Z,100952.48
2022-10-18T15:19:06.961Z,100948.07
2022-10-18T15:21:35.635Z,100947.52
2022-10-18T15:24:29.423Z,100944.17
2022-10-18T15:27:01.199Z,100941.38
2022-10-18T15:29:32.812Z,100941.42
2022-10-18T15:32:12.377Z,100943.05
2022-10-18T15:34:39.148Z,100941.33
2022-10-18T15:37:42.387Z,100943.83
2022-10-18T15:40:21.063Z,100947.38
2022-10-18T15:42:52.822Z,100944.38
2022-10-18T15:45:26.841Z,100944.79
2022-10-18T15:47:58.977Z,100941.87
2022-10-18T15:50:35.002Z,100945.69
2022-10-18T15:53:27.473Z,100945.39
2022-10-18T15:55:57.108Z,100946.15
2022-10-18T15:58:23.695Z,100956.40
2022-10-18T16:00:55.548Z,100964.75
2022-10-18T16:03:23.925Z,100976.27
2022-10-18T16:05:59.983Z,100972.77
2022-10-18T16:08:36.446Z,100973.70
2022-10-18T16:11:03.234Z,100972.85
2022-10-18T16:13:29.919Z,100982.40
2022-10-18T16:15:56.656Z,100984.38
2022-10-18T16:18:24.204Z,100985.64
2022-10-18T16:20:50.975Z,100988.30
2022-10-18T16:23:17.719Z,100992.54
2022-10-18T16:25:44.541Z,100991.84
2022-10-18T16:28:21.009Z,100991.13
2022-10-18T16:31:00.385Z,100993.95
2022-10-18T16:33:27.520Z,100998.36
2022-10-18T16:35:54.596Z,100999.95
2022-10-18T16:38:28.688Z,101001.70
2022-10-18T16:40:58.044Z,101002.06
2022-10-18T16:47:19.097Z,101002.09
2022-10-18T16:49:49.899Z,101000.33
2022-10-18T16:52:16.719Z,101002.98
2022-10-18T16:54:43.556Z,100999.27
2022-10-18T16:57:12.847Z,100996.47
2022-10-18T16:59:39.595Z,100998.58
2022-10-18T17:02:08.767Z,101001.77
2022-10-18T17:04:35.576Z,101001.06
2022-10-18T17:07:04.288Z,101000.71
2022-10-18T17:09:34.206Z,100998.26
2022-10-18T17:12:01.027Z,100996.86
2022-10-18T17:14:35.897Z,100998.27
2022-10-18T17:18:17.286Z,100998.62
2022-10-18T17:20:00.489Z,101000.92
2022-10-18T17:22:27.351Z,101000.05
2022-10-18T17:24:54.841Z,101002.88
2022-10-18T17:27:21.683Z,101000.95
2022-10-18T17:29:48.424Z,100999.91
2022-10-18T17:32:15.509Z,101005.88
2022-10-18T17:34:42.411Z,101005.02
2022-10-18T17:37:09.136Z,101005.73
2022-10-18T17:39:36.249Z,101007.66
2022-10-18T17:42:03.397Z,101009.26
2022-10-18T17:44:30.625Z,101011.89
2022-10-18T17:47:07.739Z,101009.92
2022-10-18T17:49:34.525Z,101012.23
2022-10-18T17:52:06.001Z,101014.17
2022-10-18T17:54:34.969Z,101018.59
2022-10-18T18:04:13.434Z,101004.30
2022-10-18T18:06:40.792Z,101002.38
2022-10-18T18:09:13.205Z,101004.84
2022-10-18T18:11:43.040Z,101005.02
2022-10-18T18:14:12.352Z,101008.18
2022-10-18T18:16:41.699Z,101001.30
2022-10-18T18:19:10.064Z,101005.88
2022-10-18T18:21:37.794Z,101009.61
2022-10-18T18:24:04.933Z,101009.77
2022-10-18T18:26:32.840Z,101008.19
2022-10-18T18:31:34.330Z,101006.59
2022-10-18T18:34:05.603Z,101002.37
2022-10-18T18:36:32.420Z,100998.31
2022-10-18T18:38:59.374Z,100996.02
2022-10-18T18:41:27.917Z,100993.39
2022-10-18T18:43:58.473Z,100995.66
2022-10-18T18:46:27.923Z,100993.56
2022-10-18T18:48:57.106Z,100995.32
2022-10-18T18:51:24.645Z,100993.38
2022-10-18T18:53:51.900Z,100990.92
2022-10-18T18:56:23.469Z,100992.32
2022-10-18T18:58:51.998Z,100991.80
2022-10-18T19:01:21.650Z,100991.80
2022-10-18T19:03:50.561Z,100991.09
2022-10-18T19:06:19.792Z,100987.05
2022-10-18T19:08:47.840Z,100991.10
2022-10-18T19:11:18.135Z,100989.85
2022-10-18T19:13:45.294Z,100988.98
2022-10-18T19:16:18.815Z,100988.65
2022-10-18T19:18:58.020Z,100990.41
2022-10-18T19:21:27.446Z,100988.65
2022-10-18T19:23:56.184Z,100986.37
2022-10-18T19:26:22.782Z,100991.48
2022-10-18T19:28:49.603Z,100992.00
2022-10-18T19:31:16.354Z,100995.88
2022-10-18T19:33:55.593Z,100993.76
2022-10-18T19:36:25.686Z,100995.70
2022-10-18T19:38:52.361Z,100993.08
2022-10-18T19:41:19.200Z,100989.19
2022-10-18T19:43:46.442Z,100991.48
2022-10-18T19:46:13.369Z,100989.71
2022-10-18T19:48:40.122Z,100985.66
2022-10-18T19:51:20.323Z,100989.02
2022-10-18T19:53:53.363Z,100987.96
2022-10-18T19:56:22.736Z,100988.67
2022-10-18T19:58:50.276Z,100998.35
2022-10-18T20:01:17.711Z,100997.83
2022-10-18T20:03:45.167Z,100998.00
2022-10-18T20:06:12.260Z,100997.47
2022-10-18T20:08:39.445Z,100995.71
2022-10-18T20:11:11.577Z,100999.05
2022-10-18T20:13:38.656Z,100997.84
2022-10-18T20:16:08.314Z,100994.83
2022-10-18T20:18:35.497Z,101002.21
2022-10-18T20:21:09.687Z,100995.02
2022-10-18T20:23:38.632Z,100995.89
2022-10-18T20:26:20.822Z,100992.38
2022-10-18T20:28:58.026Z,100996.41
2022-10-18T20:31:34.918Z,100995.17
2022-10-18T20:34:04.516Z,100990.77
2022-10-18T20:36:32.196Z,100990.42
2022-10-18T20:38:59.805Z,100990.27
2022-10-18T20:41:31.944Z,100994.66
2022-10-18T20:44:04.172Z,100990.61
2022-10-18T20:46:33.218Z,100994.31
2022-10-18T20:49:00.347Z,100999.75
2022-10-18T20:51:27.754Z,100999.77
2022-10-18T20:53:54.606Z,100996.95
2022-10-18T20:56:25.866Z,100996.77
2022-10-18T20:58:55.193Z,100994.65
2022-10-18T21:01:24.981Z,100992.89
2022-10-18T21:03:52.697Z,100989.73
2022-10-18T21:06:23.032Z,100986.39
2022-10-18T21:09:05.116Z,100983.40
2022-10-18T21:11:36.081Z,100981.29
2022-10-18T21:14:03.487Z,100984.45
2022-10-18T21:16:35.278Z,100977.05
2022-10-18T21:19:03.726Z,100976.52
2022-10-18T21:21:31.493Z,100973.36
2022-10-18T21:23:58.968Z,100971.60
2022-10-18T21:26:28.051Z,100973.02
2022-10-18T21:28:57.926Z,100971.23
2022-10-18T21:31:29.762Z,100967.91
2022-10-18T21:34:02.297Z,100970.02
2022-10-18T21:36:36.824Z,100969.85
2022-10-18T21:39:07.153Z,100966.14
2022-10-18T21:41:34.288Z,100962.80
2022-10-18T21:44:04.459Z,100963.15
2022-10-18T21:46:33.763Z,100964.91
2022-10-18T21:49:00.852Z,100956.82
2022-10-18T21:51:28.270Z,100957.53
2022-10-18T21:53:56.844Z,100960.35
2022-10-18T21:56:30.892Z,100957.36
2022-10-18T21:58:58.251Z,100955.59
2022-10-18T22:01:27.820Z,100949.96
2022-10-18T22:03:55.594Z,100943.81
2022-10-18T22:06:23.263Z,100948.02
2022-10-18T22:08:56.191Z,100945.04
2022-10-18T22:11:29.694Z,100939.41
2022-10-18T22:13:57.271Z,100936.59
2022-10-18T22:16:24.594Z,100943.98
2022-10-18T22:18:52.619Z,100939.05
2022-10-18T22:21:20.045Z,100934.48
2022-10-18T22:23:49.548Z,100929.37
2022-10-18T22:26:18.991Z,100932.18
2022-10-18T22:28:46.553Z,100932.36
2022-10-18T22:31:22.003Z,100930.09
2022-10-18T22:33:57.137Z,100920.93
2022-10-18T22:36:24.374Z,100922.69
2022-10-18T22:38:51.159Z,100923.39
2022-10-18T22:41:18.386Z,100927.79
2022-10-18T22:43:47.156Z,100924.09
2022-10-18T22:46:14.562Z,100924.27
2022-10-18T22:48:41.683Z,100922.52
2022-10-18T22:51:09.484Z,100921.29
2022-10-18T22:53:37.624Z,100918.82
2022-10-18T22:56:04.968Z,100921.99
2022-10-18T22:58:32.008Z,100917.23
2022-10-18T23:01:07.832Z,100919.52
2022-10-18T23:03:34.894Z,100914.07
2022-10-18T23:06:01.796Z,100917.24
2022-10-18T23:08:29.345Z,100914.96
2022-10-18T23:10:58.959Z,100918.46
2022-10-18T23:13:27.139Z,100922.87
2022-10-18T23:16:04.297Z,100917.95
2022-10-18T23:18:32.749Z,100917.94
2022-10-18T23:21:03.820Z,100922.16
2022-10-18T23:23:34.765Z,100926.02
2022-10-18T23:26:09.936Z,100921.64
2022-10-18T23:28:38.847Z,100918.83
2022-10-18T23:31:14.522Z,100920.91
2022-10-18T23:33:41.323Z,100925.67
2022-10-18T23:36:08.351Z,100920.40
2022-10-18T23:38:36.053Z,100926.55
2022-10-18T23:41:03.057Z,100926.89
2022-10-18T23:43:29.832Z,100923.35
2022-10-18T23:45:56.793Z,100920.36
2022-10-18T23:48:23.509Z,100920.19
2022-10-18T23:50:50.200Z,100918.25
2022-10-18T23:53:19.061Z,100918.27
2022-10-18T23:55:53.696Z,100916.34
2022-10-18T23:58:21.092Z,100915.29
